Time;durP1;ratioP1;P1;durP2;ratioP2;P2;SDS_P1;SDS_P2;PMS_P1;PMS_P2;Temp;Humidity;BMP_temperature;BMP_pressure;BME280_temperature;BME280_humidity;BME280_pressure;Samples;Min_cycle;Max_cycle;Signal;HPM_P1;HPM_P2
2022/10/19 00:00:59;;;;;;;14.23;3.80;;;;;;;;;;5015935;28;20272;-83
2022/10/19 00:03:25;;;;;;;9.30;3.70;;;;;;;;;;5033440;28;20183;-80
2022/10/19 00:05:51;;;;;;;16.43;4.23;;;;;;;;;;5000174;28;20189;-79
2022/10/19 00:08:17;;;;;;;11.97;4.50;;;;;;;;;;5030101;28;20433;-79
2022/10/19 00:10:43;;;;;;;10.00;3.77;;;;;;;;;;5005558;28;20312;-79
2022/10/19 00:13:09;;;;;;;7.67;3.90;;;;;;;;;;5052348;28;20267;-79
2022/10/19 00:15:39;;;;;;;12.20;3.90;;;;;;;;;;5053066;28;20200;-79
2022/10/19 00:18:08;;;;;;;11.60;3.70;;;;;;;;;;5036932;28;20227;-79
2022/10/19 00:20:35;;;;;;;11.73;3.80;;;;;;;;;;5019081;28;20230;-79
2022/10/19 00:23:01;;;;;;;7.87;3.50;;;;;;;;;;5003563;28;20247;-79
2022/10/19 00:25:27;;;;;;;11.27;3.47;;;;;;;;;;5019019;28;20188;-79
2022/10/19 00:27:53;;;;;;;8.50;4.00;;;;;;;;;;5019535;28;20429;-81
2022/10/19 00:30:19;;;;;;;9.00;3.93;;;;;;;;;;5019410;28;20362;-82
2022/10/19 00:32:45;;;;;;;9.33;4.17;;;;;;;;;;5036701;28;20184;-82
2022/10/19 00:35:11;;;;;;;10.57;4.33;;;;;;;;;;5036190;28;20439;-81
2022/10/19 00:37:37;;;;;;;9.13;4.55;;;;;;;;;;5035295;28;20445;-82
2022/10/19 00:40:03;;;;;;;13.60;4.67;;;;;;;;;;5003030;28;20181;-79
2022/10/19 00:42:29;;;;;;;11.37;4.00;;;;;;;;;;5035160;28;20189;-79
2022/10/19 00:45:01;;;;;;;13.32;4.70;;;;;;;;;;5014761;28;20430;-79
2022/10/19 00:47:27;;;;;;;9.87;3.90;;;;;;;;;;5048207;28;20172;-79
2022/10/19 00:49:53;;;;;;;8.27;4.20;;;;;;;;;;5019360;28;20177;-79
2022/10/19 00:52:21;;;;;;;8.43;3.87;;;;;;;;;;5018519;28;20192;-79
2022/10/19 00:54:48;;;;;;;11.17;4.03;;;;;;;;;;5018770;28;20181;-79
2022/10/19 00:57:14;;;;;;;9.97;3.67;;;;;;;;;;5002640;28;20255;-79
2022/10/19 00:59:41;;;;;;;12.33;4.43;;;;;;;;;;5018882;28;20210;-81
2022/10/19 01:02:07;;;;;;;7.07;4.20;;;;;;;;;;5035714;28;20180;-81
2022/10/19 01:04:34;;;;;;;11.83;3.87;;;;;;;;;;5036084;28;20185;-79
2022/10/19 01:07:01;;;;;;;8.37;4.10;;;;;;;;;;5017901;28;20211;-79
2022/10/19 01:09:27;;;;;;;10.75;4.80;;;;;;;;;;5050330;28;20497;-79
2022/10/19 01:12:03;;;;;;;11.27;4.23;;;;;;;;;;5035344;28;20266;-79
2022/10/19 01:14:35;;;;;;;9.23;4.43;;;;;;;;;;5054232;28;20185;-90
2022/10/19 01:17:22;;;;;;;8.93;4.60;;;;;;;;;;5034941;28;20433;-90
2022/10/19 01:20:01;;;;;;;9.10;4.57;;;;;;;;;;5051625;28;20402;-90
2022/10/19 01:22:56;;;;;;;8.73;4.70;;;;;;;;;;5051897;28;20177;-90
2022/10/19 01:25:41;;;;;;;10.77;4.85;;;;;;;;;;5001261;28;20433;-91
2022/10/19 01:28:19;;;;;;;10.87;4.10;;;;;;;;;;5044590;28;20191;-81
2022/10/19 01:30:59;;;;;;;11.67;4.40;;;;;;;;;;5018314;28;20181;-81
2022/10/19 01:33:51;;;;;;;10.37;4.30;;;;;;;;;;5035728;28;20248;-81
2022/10/19 01:36:17;;;;;;;11.77;4.23;;;;;;;;;;5004122;28;20193;-81
2022/10/19 01:38:51;;;;;;;6.37;3.70;;;;;;;;;;5084347;22;20262;-90
2022/10/19 01:41:21;;;;;;;8.50;4.10;;;;;;;;;;5035664;28;20176;-90
2022/10/19 01:44:10;;;;;;;13.10;4.33;;;;;;;;;;5035813;28;20169;-90
2022/10/19 01:46:37;;;;;;;9.47;4.20;;;;;;;;;;5035591;28;20226;-83
2022/10/19 01:49:23;;;;;;;10.53;4.23;;;;;;;;;;5018284;28;20191;-83
2022/10/19 01:52:00;;;;;;;9.30;4.90;;;;;;;;;;4974620;28;20423;-83
2022/10/19 01:54:29;;;;;;;8.03;4.63;;;;;;;;;;5009305;28;20176;-84
2022/10/19 01:56:57;;;;;;;10.32;5.65;;;;;;;;;;5015630;28;20432;-83
2022/10/19 01:59:24;;;;;;;16.83;4.47;;;;;;;;;;5017289;28;20176;-83
2022/10/19 02:01:51;;;;;;;9.65;4.20;;;;;;;;;;5037914;28;20434;-81
2022/10/19 02:04:19;;;;;;;11.52;5.40;;;;;;;;;;4999634;28;20421;-79
2022/10/19 02:06:45;;;;;;;7.63;4.23;;;;;;;;;;5037906;28;20192;-79
2022/10/19 02:09:16;;;;;;;9.43;4.30;;;;;;;;;;5000619;28;20436;-79
2022/10/19 02:11:44;;;;;;;13.37;4.37;;;;;;;;;;5001486;28;20197;-79
2022/10/19 02:14:12;;;;;;;12.05;4.88;;;;;;;;;;5013445;28;20425;-79
2022/10/19 02:16:43;;;;;;;12.18;5.40;;;;;;;;;;5012191;28;20431;-79
2022/10/19 02:19:10;;;;;;;6.63;4.20;;;;;;;;;;5017059;28;20260;-81
2022/10/19 02:21:36;;;;;;;8.85;4.20;;;;;;;;;;5010437;28;20428;-79
2022/10/19 02:24:02;;;;;;;4.40;3.77;;;;;;;;;;5017126;28;20172;-78
2022/10/19 02:26:29;;;;;;;6.93;3.70;;;;;;;;;;5000843;28;20189;-79
2022/10/19 02:28:55;;;;;;;9.07;4.50;;;;;;;;;;4999348;28;20461;-79
2022/10/19 02:31:21;;;;;;;11.60;4.20;;;;;;;;;;5000934;28;20200;-79
2022/10/19 02:33:47;;;;;;;14.23;4.50;;;;;;;;;;5016300;28;20500;-79
2022/10/19 02:36:14;;;;;;;9.80;4.80;;;;;;;;;;4999473;28;20448;-79
2022/10/19 02:38:41;;;;;;;5.77;4.00;;;;;;;;;;5033737;28;20224;-81
2022/10/19 02:41:16;;;;;;;9.47;4.00;;;;;;;;;;4993321;28;20242;-79
2022/10/19 02:43:44;;;;;;;12.47;4.43;;;;;;;;;;5016181;28;20222;-79
2022/10/19 02:46:15;;;;;;;9.32;4.60;;;;;;;;;;5015421;28;20429;-81
2022/10/19 02:48:42;;;;;;;11.07;4.87;;;;;;;;;;5016034;28;20479;-81
2022/10/19 02:51:26;;;;;;;10.18;4.80;;;;;;;;;;4997678;28;20431;-81
2022/10/19 02:53:52;;;;;;;6.90;3.80;;;;;;;;;;5034226;28;20183;-90
2022/10/19 02:56:18;;;;;;;8.47;4.33;;;;;;;;;;5016489;28;20417;-90
2022/10/19 02:58:44;;;;;;;7.03;3.93;;;;;;;;;;5001190;28;20176;-91
2022/10/19 03:01:10;;;;;;;8.03;4.40;;;;;;;;;;5000269;28;20421;-91
2022/10/19 03:03:36;;;;;;;9.07;3.90;;;;;;;;;;5018178;28;20211;-90
2022/10/19 03:06:02;;;;;;;6.27;3.60;;;;;;;;;;5001211;28;20181;-90
2022/10/19 03:08:28;;;;;;;4.43;3.33;;;;;;;;;;5000351;28;20208;-90
2022/10/19 03:10:54;;;;;;;7.73;3.30;;;;;;;;;;4998794;28;20275;-78
2022/10/19 03:13:20;;;;;;;5.00;3.10;;;;;;;;;;4994296;28;20189;-79
2022/10/19 03:15:46;;;;;;;3.97;3.03;;;;;;;;;;4999674;28;20191;-79
2022/10/19 03:18:12;;;;;;;4.57;2.53;;;;;;;;;;4999209;28;20223;-79
2022/10/19 03:20:41;;;;;;;5.37;2.97;;;;;;;;;;4995990;28;20268;-79
2022/10/19 03:23:07;;;;;;;8.10;3.47;;;;;;;;;;5038304;28;20472;-79
2022/10/19 03:25:33;;;;;;;11.17;3.70;;;;;;;;;;4998094;28;20208;-79
2022/10/19 03:27:59;;;;;;;5.00;2.73;;;;;;;;;;4999726;28;20185;-78
2022/10/19 03:30:25;;;;;;;3.33;2.70;;;;;;;;;;4993837;28;20200;-79
2022/10/19 03:32:51;;;;;;;5.20;2.50;;;;;;;;;;4999118;28;20234;-78
2022/10/19 03:35:17;;;;;;;8.03;2.50;;;;;;;;;;4984694;28;20276;-78
2022/10/19 03:37:43;;;;;;;7.60;2.43;;;;;;;;;;5018324;28;20240;-90
2022/10/19 03:40:09;;;;;;;3.80;2.57;;;;;;;;;;5002597;28;20181;-81
2022/10/19 03:42:35;;;;;;;7.63;2.70;;;;;;;;;;4996116;28;20212;-79
2022/10/19 03:45:01;;;;;;;3.20;2.90;;;;;;;;;;5000765;28;20247;-79
2022/10/19 03:47:27;;;;;;;4.63;2.73;;;;;;;;;;5009371;28;20199;-79
2022/10/19 03:49:54;;;;;;;3.30;3.00;;;;;;;;;;5003812;28;20203;-79
2022/10/19 03:52:20;;;;;;;2.80;2.60;;;;;;;;;;5019989;28;20193;-79
2022/10/19 03:54:49;;;;;;;5.18;3.15;;;;;;;;;;5016870;28;20447;-79
2022/10/19 03:57:15;;;;;;;4.50;3.60;;;;;;;;;;5012406;28;20431;-78
2022/10/19 03:59:41;;;;;;;3.20;2.90;;;;;;;;;;5004058;28;20180;-90
2022/10/19 04:02:07;;;;;;;3.03;2.73;;;;;;;;;;5021862;28;20188;-90
2022/10/19 04:04:33;;;;;;;5.30;3.37;;;;;;;;;;5008934;28;20452;-91
2022/10/19 04:06:59;;;;;;;4.28;3.63;;;;;;;;;;5008515;28;20445;-90
2022/10/19 04:09:25;;;;;;;3.50;3.20;;;;;;;;;;5009043;28;20414;-90
2022/10/19 04:11:52;;;;;;;4.00;3.60;;;;;;;;;;5023886;28;20409;-90
2022/10/19 04:14:18;;;;;;;4.80;3.20;;;;;;;;;;5024419;28;20417;-90
2022/10/19 04:16:44;;;;;;;4.20;3.65;;;;;;;;;;5020574;28;20455;-81
2022/10/19 04:19:14;;;;;;;4.93;3.80;;;;;;;;;;5018918;28;20440;-81
2022/10/19 04:21:42;;;;;;;4.80;4.40;;;;;;;;;;5013759;28;20443;-81
2022/10/19 04:24:08;;;;;;;15.48;5.20;;;;;;;;;;4999124;28;20475;-81
2022/10/19 04:26:37;;;;;;;38.83;6.37;;;;;;;;;;5037241;28;20418;-81
2022/10/19 04:29:03;;;;;;;67.03;7.25;;;;;;;;;;5018565;28;20453;-81
2022/10/19 04:31:29;;;;;;;89.05;7.53;;;;;;;;;;5017837;28;20432;-81
2022/10/19 04:33:55;;;;;;;118.97;9.20;;;;;;;;;;5018617;28;20417;-90
2022/10/19 04:36:21;;;;;;;82.67;7.03;;;;;;;;;;5019831;28;20195;-90
2022/10/19 04:38:48;;;;;;;84.70;8.57;;;;;;;;;;5036217;28;20464;-90
2022/10/19 04:41:15;;;;;;;41.72;7.40;;;;;;;;;;5020361;28;20484;-86
2022/10/19 04:43:44;;;;;;;51.30;7.00;;;;;;;;;;5019258;28;20493;-91
2022/10/19 04:46:11;;;;;;;59.55;8.10;;;;;;;;;;5036441;28;20429;-90
2022/10/19 04:48:38;;;;;;;145.35;9.57;;;;;;;;;;5019064;28;20402;-90
2022/10/19 04:51:04;;;;;;;151.02;10.50;;;;;;;;;;5008591;28;20427;-83
2022/10/19 04:53:31;;;;;;;114.35;10.05;;;;;;;;;;5027522;28;20520;-83
2022/10/19 04:55:57;;;;;;;45.33;7.50;;;;;;;;;;5018911;28;20243;-83
2022/10/19 04:58:23;;;;;;;22.07;7.30;;;;;;;;;;5018364;28;20220;-83
2022/10/19 05:00:49;;;;;;;20.40;6.73;;;;;;;;;;5035765;28;20203;-83
2022/10/19 05:03:15;;;;;;;58.73;7.67;;;;;;;;;;5001711;28;20185;-83
2022/10/19 05:05:41;;;;;;;47.57;7.50;;;;;;;;;;5002057;28;20189;-83
2022/10/19 05:08:07;;;;;;;48.97;7.57;;;;;;;;;;5002636;28;20184;-83
2022/10/19 05:10:33;;;;;;;27.63;7.77;;;;;;;;;;5018789;28;20283;-83
2022/10/19 05:13:01;;;;;;;39.50;7.33;;;;;;;;;;5018691;28;20180;-90
2022/10/19 05:15:27;;;;;;;113.00;10.30;;;;;;;;;;5018688;28;20506;-90
2022/10/19 05:17:53;;;;;;;47.92;9.13;;;;;;;;;;5002856;28;20430;-90
2022/10/19 05:20:19;;;;;;;47.15;9.23;;;;;;;;;;5002781;28;20418;-81
2022/10/19 05:22:46;;;;;;;46.53;9.57;;;;;;;;;;5001854;28;20405;-91
2022/10/19 05:25:12;;;;;;;28.40;7.47;;;;;;;;;;5019517;28;20199;-91
2022/10/19 05:27:38;;;;;;;17.35;8.43;;;;;;;;;;5002402;28;20424;-90
2022/10/19 05:30:05;;;;;;;16.07;6.97;;;;;;;;;;5002918;28;20185;-78
2022/10/19 05:32:31;;;;;;;10.93;6.60;;;;;;;;;;5002355;28;20238;-83
2022/10/19 05:34:57;;;;;;;10.83;7.03;;;;;;;;;;5035866;28;20181;-83
2022/10/19 05:37:24;;;;;;;29.77;8.25;;;;;;;;;;5017744;28;20444;-84
2022/10/19 05:39:50;;;;;;;24.73;7.80;;;;;;;;;;5002029;28;20254;-84
2022/10/19 05:42:16;;;;;;;8.18;7.38;;;;;;;;;;5018223;28;20414;-84
2022/10/19 05:44:42;;;;;;;9.95;9.05;;;;;;;;;;5017013;28;20418;-83
2022/10/19 05:47:08;;;;;;;8.93;8.03;;;;;;;;;;5018044;28;20424;-84
2022/10/19 05:49:34;;;;;;;9.30;8.50;;;;;;;;;;5001287;28;20409;-84
2022/10/19 05:52:00;;;;;;;9.70;8.90;;;;;;;;;;5017113;28;20492;-83
2022/10/19 05:54:26;;;;;;;9.77;8.88;;;;;;;;;;5000875;28;20496;-83
2022/10/19 05:56:52;;;;;;;8.03;6.93;;;;;;;;;;5001574;28;20208;-78
2022/10/19 05:59:19;;;;;;;9.50;8.50;;;;;;;;;;5001510;28;20449;-78
2022/10/19 06:01:46;;;;;;;8.90;8.00;;;;;;;;;;5034015;28;20447;-78
2022/10/19 06:04:13;;;;;;;9.93;8.80;;;;;;;;;;5032322;28;20470;-78
2022/10/19 06:06:40;;;;;;;10.90;8.30;;;;;;;;;;5033891;28;20420;-78
2022/10/19 06:09:06;;;;;;;10.50;9.40;;;;;;;;;;5034426;28;20397;-78
2022/10/19 06:11:33;;;;;;;12.67;9.37;;;;;;;;;;5000240;28;20410;-78
2022/10/19 06:14:01;;;;;;;10.05;9.05;;;;;;;;;;5017032;28;20437;-81
2022/10/19 06:16:28;;;;;;;10.43;8.80;;;;;;;;;;5016559;28;20428;-81
2022/10/19 06:18:54;;;;;;;9.55;8.50;;;;;;;;;;5016214;28;20409;-81
2022/10/19 06:21:22;;;;;;;9.05;8.15;;;;;;;;;;5017015;28;20402;-81
2022/10/19 06:23:51;;;;;;;9.25;8.35;;;;;;;;;;5016910;28;20420;-81
2022/10/19 06:26:18;;;;;;;9.30;8.40;;;;;;;;;;5032851;28;20406;-81
2022/10/19 06:28:44;;;;;;;8.80;7.95;;;;;;;;;;5034293;28;20409;-81
2022/10/19 06:31:11;;;;;;;7.33;6.40;;;;;;;;;;5033912;28;20177;-79
2022/10/19 06:33:39;;;;;;;8.50;7.60;;;;;;;;;;5018127;28;20463;-81
2022/10/19 06:36:09;;;;;;;8.88;7.72;;;;;;;;;;5033901;28;20495;-81
2022/10/19 06:38:35;;;;;;;10.10;6.37;;;;;;;;;;5017269;28;20229;-81
2022/10/19 06:41:01;;;;;;;6.87;6.00;;;;;;;;;;5000727;28;20187;-81
2022/10/19 06:43:27;;;;;;;5.40;4.80;;;;;;;;;;5000630;28;20409;-81
2022/10/19 06:45:53;;;;;;;9.47;6.00;;;;;;;;;;5017236;28;20176;-78
2022/10/19 06:48:19;;;;;;;8.88;5.97;;;;;;;;;;5016986;28;20489;-79
2022/10/19 06:50:45;;;;;;;12.37;5.80;;;;;;;;;;5000683;28;20187;-78
2022/10/19 06:53:11;;;;;;;12.80;6.03;;;;;;;;;;5000425;28;20185;-78
2022/10/19 06:55:37;;;;;;;12.53;6.63;;;;;;;;;;5017717;28;20176;-78
2022/10/19 06:58:03;;;;;;;16.37;7.23;;;;;;;;;;5000173;28;20204;-78
2022/10/19 07:00:29;;;;;;;13.57;8.00;;;;;;;;;;5017008;28;20219;-78
2022/10/19 07:02:56;;;;;;;13.60;8.67;;;;;;;;;;5017298;28;20181;-83
2022/10/19 07:05:22;;;;;;;25.67;9.77;;;;;;;;;;5034977;28;20205;-90
2022/10/19 07:07:48;;;;;;;14.47;8.93;;;;;;;;;;5003529;28;20211;-90
2022/10/19 07:10:14;;;;;;;16.40;9.67;;;;;;;;;;5018887;28;20188;-90
2022/10/19 07:12:40;;;;;;;16.70;10.13;;;;;;;;;;5018827;28;20275;-90
2022/10/19 07:15:06;;;;;;;15.43;10.30;;;;;;;;;;5018189;28;20208;-90
2022/10/19 07:17:32;;;;;;;16.87;11.20;;;;;;;;;;5019168;28;20204;-90
2022/10/19 07:19:58;;;;;;;18.40;11.17;;;;;;;;;;5002873;28;20195;-78
2022/10/19 07:22:24;;;;;;;19.10;11.37;;;;;;;;;;5016825;28;20177;-78
2022/10/19 07:24:51;;;;;;;16.00;11.47;;;;;;;;;;5016544;28;20179;-78
2022/10/19 07:27:17;;;;;;;17.63;11.27;;;;;;;;;;5000397;28;20180;-78
2022/10/19 07:29:43;;;;;;;18.17;12.37;;;;;;;;;;5000210;28;20189;-78
2022/10/19 07:32:09;;;;;;;18.63;14.53;;;;;;;;;;5015845;28;20441;-78
2022/10/19 07:34:35;;;;;;;18.63;12.60;;;;;;;;;;5016950;28;20271;-78
2022/10/19 07:37:01;;;;;;;16.37;11.97;;;;;;;;;;5000011;28;20303;-78
2022/10/19 07:39:27;;;;;;;21.92;14.88;;;;;;;;;;5036740;22;20466;-78
2022/10/19 07:41:53;;;;;;;16.73;12.57;;;;;;;;;;5032248;28;20180;-81
2022/10/19 07:44:19;;;;;;;19.73;11.73;;;;;;;;;;5012500;28;20446;-81
2022/10/19 07:46:45;;;;;;;14.77;10.63;;;;;;;;;;5029126;28;20176;-81
2022/10/19 07:49:18;;;;;;;17.00;12.10;;;;;;;;;;5031513;28;20405;-81
2022/10/19 07:51:45;;;;;;;12.07;8.23;;;;;;;;;;5031652;28;20496;-81
2022/10/19 07:54:12;;;;;;;13.68;9.13;;;;;;;;;;5031896;28;20456;-81
2022/10/19 07:56:38;;;;;;;11.02;7.82;;;;;;;;;;5033178;28;20401;-81
2022/10/19 07:59:05;;;;;;;10.73;7.40;;;;;;;;;;5033041;28;20409;-81
2022/10/19 08:01:32;;;;;;;12.40;6.60;;;;;;;;;;5015985;28;20203;-78
2022/10/19 08:03:59;;;;;;;11.70;6.30;;;;;;;;;;5032270;28;20176;-78
2022/10/19 08:06:25;;;;;;;9.33;5.87;;;;;;;;;;5033216;28;20173;-79
2022/10/19 08:08:52;;;;;;;9.77;5.73;;;;;;;;;;5032122;28;20180;-79
2022/10/19 08:11:19;;;;;;;8.50;5.40;;;;;;;;;;5032049;28;20188;-81
2022/10/19 08:13:45;;;;;;;7.95;5.35;;;;;;;;;;5032777;28;20456;-81
2022/10/19 08:16:26;;;;;;;7.87;5.03;;;;;;;;;;5015836;28;20201;-81
2022/10/19 08:18:55;;;;;;;6.87;4.60;;;;;;;;;;5031973;28;20191;-81
2022/10/19 08:21:21;;;;;;;7.37;4.60;;;;;;;;;;5016125;28;20306;-81
2022/10/19 08:23:47;;;;;;;9.63;4.77;;;;;;;;;;5031981;28;20181;-81
2022/10/19 08:26:13;;;;;;;7.63;4.60;;;;;;;;;;5032673;28;20455;-83
2022/10/19 08:28:39;;;;;;;6.23;4.30;;;;;;;;;;5036031;28;20187;-83
2022/10/19 08:31:13;;;;;;;7.23;4.43;;;;;;;;;;5019389;28;20187;-84
2022/10/19 08:33:39;;;;;;;7.83;4.30;;;;;;;;;;5035888;28;20187;-83
2022/10/19 08:36:06;;;;;;;8.33;4.30;;;;;;;;;;5019034;28;20402;-84
2022/10/19 08:38:33;;;;;;;6.20;4.30;;;;;;;;;;5034309;28;20449;-84
2022/10/19 08:41:04;;;;;;;6.97;4.15;;;;;;;;;;5034854;28;20412;-84
2022/10/19 08:43:34;;;;;;;7.35;3.72;;;;;;;;;;5035470;28;20474;-84
2022/10/19 08:46:15;;;;;;;7.20;3.50;;;;;;;;;;5035313;28;20362;-84
2022/10/19 08:48:41;;;;;;;6.82;3.42;;;;;;;;;;5034288;28;20485;-84
2022/10/19 08:51:11;;;;;;;6.60;3.30;;;;;;;;;;5017824;28;20409;-82
2022/10/19 08:53:40;;;;;;;5.50;2.90;;;;;;;;;;5035156;28;20168;-82
2022/10/19 08:56:17;;;;;;;7.38;3.30;;;;;;;;;;5034486;28;20413;-82
2022/10/19 08:59:02;;;;;;;6.53;2.70;;;;;;;;;;5034859;28;20192;-82
2022/10/19 09:01:39;;;;;;;4.17;2.77;;;;;;;;;;5023176;28;20203;-91
2022/10/19 09:04:08;;;;;;;5.00;2.53;;;;;;;;;;5039552;28;20172;-91
2022/10/19 09:07:06;;;;;;;3.00;2.30;;;;;;;;;;5036175;28;20231;-84
2022/10/19 09:09:34;;;;;;;5.17;2.50;;;;;;;;;;4983097;28;20185;-84
2022/10/19 09:12:04;;;;;;;5.20;2.30;;;;;;;;;;5024191;28;20185;-84
2022/10/19 09:14:32;;;;;;;4.87;2.33;;;;;;;;;;5034253;28;20196;-85
2022/10/19 09:17:02;;;;;;;3.80;2.43;;;;;;;;;;5034532;28;20200;-80
2022/10/19 09:19:30;;;;;;;3.60;2.33;;;;;;;;;;5034562;28;20181;-80
2022/10/19 09:21:57;;;;;;;3.40;2.30;;;;;;;;;;5034829;28;20187;-80
2022/10/19 09:24:27;;;;;;;3.97;2.10;;;;;;;;;;5034525;28;20181;-80
2022/10/19 09:26:55;;;;;;;4.47;2.33;;;;;;;;;;5034506;28;20200;-80
2022/10/19 09:29:24;;;;;;;5.13;2.40;;;;;;;;;;5034284;28;20186;-80
2022/10/19 09:31:53;;;;;;;6.17;2.03;;;;;;;;;;5034375;28;20180;-80
2022/10/19 09:34:26;;;;;;;4.10;2.37;;;;;;;;;;5034341;28;20189;-83
2022/10/19 09:36:57;;;;;;;4.93;2.10;;;;;;;;;;5034118;28;20201;-83
2022/10/19 09:39:24;;;;;;;7.70;2.47;;;;;;;;;;5018348;28;20220;-83
2022/10/19 09:41:54;;;;;;;6.70;2.27;;;;;;;;;;5034063;28;20235;-83
2022/10/19 09:44:21;;;;;;;5.33;1.93;;;;;;;;;;5031327;28;20254;-83
2022/10/19 09:46:51;;;;;;;6.37;2.17;;;;;;;;;;5029529;28;20275;-83
2022/10/19 09:49:37;;;;;;;7.43;2.23;;;;;;;;;;5034124;28;20180;-80
2022/10/19 09:52:03;;;;;;;6.53;2.50;;;;;;;;;;5033793;28;20181;-80
2022/10/19 09:54:36;;;;;;;5.37;2.00;;;;;;;;;;5017517;28;20233;-80
2022/10/19 09:57:03;;;;;;;4.13;1.83;;;;;;;;;;5033846;28;20200;-80
2022/10/19 09:59:30;;;;;;;5.83;2.10;;;;;;;;;;5033919;28;20240;-80
2022/10/19 10:02:11;;;;;;;7.53;2.50;;;;;;;;;;5034793;28;20180;-80
2022/10/19 10:04:37;;;;;;;7.23;2.10;;;;;;;;;;5033851;28;20226;-80
2022/10/19 10:07:03;;;;;;;5.43;1.92;;;;;;;;;;5017490;28;20189;-85
2022/10/19 10:09:29;;;;;;;4.37;1.63;;;;;;;;;;5017312;28;20191;-85
2022/10/19 10:11:59;;;;;;;4.13;1.95;;;;;;;;;;5033894;28;20184;-85
2022/10/19 10:14:38;;;;;;;6.70;2.00;;;;;;;;;;5033815;28;20181;-85
2022/10/19 10:17:07;;;;;;;6.95;1.88;;;;;;;;;;5034741;28;20204;-85
2022/10/19 10:19:37;;;;;;;4.80;1.50;;;;;;;;;;5033495;28;20196;-85
2022/10/19 10:22:03;;;;;;;7.97;2.03;;;;;;;;;;5033499;28;20173;-85
2022/10/19 10:24:30;;;;;;;7.57;2.07;;;;;;;;;;5017080;28;20301;-85
2022/10/19 10:26:58;;;;;;;6.00;1.90;;;;;;;;;;5033001;28;20220;-85
2022/10/19 10:29:28;;;;;;;3.80;1.90;;;;;;;;;;5033694;28;20260;-85
2022/10/19 10:31:55;;;;;;;4.17;1.73;;;;;;;;;;5034049;28;20242;-85
2022/10/19 10:34:29;;;;;;;3.30;1.83;;;;;;;;;;5034185;28;20180;-85
2022/10/19 10:36:56;;;;;;;5.57;2.03;;;;;;;;;;5032761;28;20425;-85
2022/10/19 10:39:23;;;;;;;7.63;2.47;;;;;;;;;;5017401;28;20224;-92
2022/10/19 10:41:50;;;;;;;5.63;2.10;;;;;;;;;;5034865;28;20184;-91
2022/10/19 10:44:21;;;;;;;7.47;2.30;;;;;;;;;;5035395;28;20172;-91
2022/10/19 10:46:47;;;;;;;8.20;2.17;;;;;;;;;;5034442;28;20187;-91
2022/10/19 10:49:20;;;;;;;6.43;2.15;;;;;;;;;;5032577;28;20529;-91
2022/10/19 10:51:48;;;;;;;5.80;2.28;;;;;;;;;;5033119;28;20397;-91
2022/10/19 10:54:14;;;;;;;5.90;1.90;;;;;;;;;;5033882;28;20416;-91
2022/10/19 10:56:41;;;;;;;6.57;2.10;;;;;;;;;;5032792;28;20416;-80
2022/10/19 10:59:16;;;;;;;4.20;1.88;;;;;;;;;;5015403;28;20401;-80
2022/10/19 11:01:54;;;;;;;4.60;1.58;;;;;;;;;;5031555;28;20437;-80
2022/10/19 11:04:24;;;;;;;4.27;1.77;;;;;;;;;;5031545;28;20465;-82
2022/10/19 11:06:57;;;;;;;6.68;2.00;;;;;;;;;;5031751;28;20412;-83
2022/10/19 11:09:30;;;;;;;6.72;1.70;;;;;;;;;;5016112;28;20479;-83
2022/10/19 11:11:59;;;;;;;5.90;1.67;;;;;;;;;;5032728;28;20604;-83
2022/10/19 11:14:52;;;;;;;6.07;1.75;;;;;;;;;;5031782;28;20488;-84
2022/10/19 11:17:20;;;;;;;6.53;1.83;;;;;;;;;;5027997;28;20479;-85
2022/10/19 11:19:49;;;;;;;6.40;1.65;;;;;;;;;;5032807;28;20467;-80
2022/10/19 11:22:19;;;;;;;7.30;1.90;;;;;;;;;;5015922;28;20413;-80
2022/10/19 11:25:00;;;;;;;5.78;1.98;;;;;;;;;;5031780;28;20424;-80
2022/10/19 11:27:35;;;;;;;5.67;1.80;;;;;;;;;;5015968;28;20516;-80
2022/10/19 11:30:07;;;;;;;6.45;1.60;;;;;;;;;;5031380;28;20424;-82
2022/10/19 11:32:52;;;;;;;6.85;1.52;;;;;;;;;;5033603;28;20267;-82
2022/10/19 11:35:36;;;;;;;6.53;1.80;;;;;;;;;;5017275;28;20230;-85
2022/10/19 11:38:02;;;;;;;6.83;1.87;;;;;;;;;;5032385;28;20235;-85
2022/10/19 11:40:37;;;;;;;5.60;1.85;;;;;;;;;;5032259;28;20410;-90
2022/10/19 11:43:03;;;;;;;5.20;1.67;;;;;;;;;;5033282;28;20176;-91
2022/10/19 11:45:48;;;;;;;5.37;1.90;;;;;;;;;;5032968;28;20184;-80
2022/10/19 11:48:23;;;;;;;3.90;1.60;;;;;;;;;;5025830;28;20273;-82
2022/10/19 11:51:01;;;;;;;6.20;1.83;;;;;;;;;;5012837;28;20173;-82
2022/10/19 11:53:27;;;;;;;5.20;1.70;;;;;;;;;;5027940;28;20187;-85
2022/10/19 11:56:07;;;;;;;6.23;1.70;;;;;;;;;;5032302;28;20177;-85
2022/10/19 11:58:53;;;;;;;6.17;1.70;;;;;;;;;;5032101;28;20236;-84
2022/10/19 12:01:43;;;;;;;7.50;2.10;;;;;;;;;;5016291;28;20263;-85
2022/10/19 12:04:28;;;;;;;3.37;1.77;;;;;;;;;;5037102;28;20322;-80
2022/10/19 12:06:59;;;;;;;5.77;1.97;;;;;;;;;;5037000;28;20181;-80
2022/10/19 12:09:34;;;;;;;7.17;2.07;;;;;;;;;;5036713;28;20183;-84
2022/10/19 12:12:00;;;;;;;5.17;1.77;;;;;;;;;;5035846;28;20401;-84
2022/10/19 12:14:29;;;;;;;3.90;1.63;;;;;;;;;;5035774;28;20176;-85
2022/10/19 12:16:58;;;;;;;6.50;1.50;;;;;;;;;;5036730;28;20223;-84
2022/10/19 12:19:28;;;;;;;4.83;1.53;;;;;;;;;;5035554;28;20173;-80
2022/10/19 12:21:57;;;;;;;7.27;1.87;;;;;;;;;;5035820;28;20242;-80
2022/10/19 12:24:24;;;;;;;8.00;2.00;;;;;;;;;;5035851;28;20181;-80
2022/10/19 12:26:51;;;;;;;6.30;2.30;;;;;;;;;;5018686;28;20420;-80
2022/10/19 12:29:21;;;;;;;4.93;2.47;;;;;;;;;;5036565;28;20184;-80
2022/10/19 12:31:47;;;;;;;3.80;1.83;;;;;;;;;;5035382;28;20189;-80
2022/10/19 12:34:16;;;;;;;4.93;1.87;;;;;;;;;;5035650;28;20272;-80
2022/10/19 12:36:46;;;;;;;5.27;1.67;;;;;;;;;;5035563;28;20172;-80
2022/10/19 12:39:15;;;;;;;3.43;1.80;;;;;;;;;;5051577;28;20228;-80
2022/10/19 12:41:44;;;;;;;6.43;1.83;;;;;;;;;;5050155;28;20180;-80
2022/10/19 12:44:28;;;;;;;7.23;1.80;;;;;;;;;;5047831;28;20184;-80
2022/10/19 12:47:10;;;;;;;6.30;1.83;;;;;;;;;;5037424;28;20529;-80
2022/10/19 12:49:37;;;;;;;6.07;1.83;;;;;;;;;;5038173;28;20408;-80
2022/10/19 12:52:04;;;;;;;6.13;1.85;;;;;;;;;;5021466;28;20400;-80
2022/10/19 12:54:31;;;;;;;7.60;1.90;;;;;;;;;;5055528;28;20408;-84
2022/10/19 12:56:59;;;;;;;6.40;1.88;;;;;;;;;;5040169;28;20621;-84
2022/10/19 12:59:29;;;;;;;7.57;1.90;;;;;;;;;;5053049;28;20412;-85
2022/10/19 13:01:55;;;;;;;7.00;1.77;;;;;;;;;;5037521;28;20415;-84
2022/10/19 13:04:45;;;;;;;5.80;1.90;;;;;;;;;;5045247;28;20483;-85
2022/10/19 13:07:16;;;;;;;6.18;1.83;;;;;;;;;;5036266;28;20416;-84
2022/10/19 13:09:45;;;;;;;6.87;1.90;;;;;;;;;;5037743;28;20462;-82
2022/10/19 13:12:14;;;;;;;5.27;1.80;;;;;;;;;;5045780;28;20463;-82
2022/10/19 13:14:40;;;;;;;7.45;1.88;;;;;;;;;;5054986;28;20418;-82
2022/10/19 13:17:07;;;;;;;5.88;1.70;;;;;;;;;;5038423;28;20428;-82
2022/10/19 13:19:33;;;;;;;7.83;2.00;;;;;;;;;;5020986;28;20408;-82
2022/10/19 13:22:19;;;;;;;9.37;1.87;;;;;;;;;;5036928;28;21234;-85
2022/10/19 13:25:05;;;;;;;6.18;1.90;;;;;;;;;;5041428;28;20400;-84
2022/10/19 13:27:35;;;;;;;6.45;1.70;;;;;;;;;;5019024;28;20412;-91
2022/10/19 13:30:01;;;;;;;5.57;1.60;;;;;;;;;;5020055;28;20435;-91
2022/10/19 13:32:30;;;;;;;5.90;1.67;;;;;;;;;;5033319;28;20498;-90
2022/10/19 13:35:16;;;;;;;6.63;1.75;;;;;;;;;;5056733;28;20531;-91
2022/10/19 13:37:42;;;;;;;3.03;1.50;;;;;;;;;;5050505;22;21222;-80
2022/10/19 13:40:17;;;;;;;4.30;1.70;;;;;;;;;;5037132;28;20412;-81
2022/10/19 13:42:44;;;;;;;6.00;1.90;;;;;;;;;;5050019;28;20483;-90
2022/10/19 13:45:23;;;;;;;5.80;1.60;;;;;;;;;;5036671;28;20412;-90
2022/10/19 13:47:52;;;;;;;6.13;1.77;;;;;;;;;;5054675;28;20401;-90
2022/10/19 13:50:27;;;;;;;4.57;1.63;;;;;;;;;;5055203;28;20183;-90
2022/10/19 13:53:16;;;;;;;4.53;1.40;;;;;;;;;;5041063;28;20180;-90
2022/10/19 13:55:58;;;;;;;5.43;1.63;;;;;;;;;;5010658;28;20192;-90
2022/10/19 13:58:43;;;;;;;4.23;1.80;;;;;;;;;;5037320;28;20245;-78
2022/10/19 14:01:14;;;;;;;5.27;1.70;;;;;;;;;;5037118;28;20309;-82
2022/10/19 14:03:59;;;;;;;4.37;1.60;;;;;;;;;;5036954;28;20176;-82
2022/10/19 14:06:25;;;;;;;6.03;1.57;;;;;;;;;;5044300;28;20178;-82
2022/10/19 14:08:59;;;;;;;3.78;1.40;;;;;;;;;;5037154;28;20398;-82
2022/10/19 14:11:31;;;;;;;7.03;1.80;;;;;;;;;;5020728;28;20491;-82
2022/10/19 14:14:12;;;;;;;6.63;1.63;;;;;;;;;;5035883;28;20408;-82
2022/10/19 14:17:07;;;;;;;6.68;1.90;;;;;;;;;;5053729;28;20399;-81
2022/10/19 14:19:44;;;;;;;7.00;1.70;;;;;;;;;;5010049;28;20227;-81
2022/10/19 14:22:19;;;;;;;4.73;1.77;;;;;;;;;;5020615;28;20200;-81
2022/10/19 14:24:45;;;;;;;3.93;1.67;;;;;;;;;;5053675;28;20195;-81
2022/10/19 14:27:16;;;;;;;8.97;1.80;;;;;;;;;;5036636;28;20254;-81
2022/10/19 14:29:44;;;;;;;3.47;1.50;;;;;;;;;;5036763;28;20244;-81
2022/10/19 14:32:11;;;;;;;3.67;1.50;;;;;;;;;;5046130;28;20188;-81
2022/10/19 14:34:41;;;;;;;4.65;1.60;;;;;;;;;;5036073;28;20412;-81
2022/10/19 14:37:12;;;;;;;3.77;1.60;;;;;;;;;;5037889;28;20204;-81
2022/10/19 14:39:38;;;;;;;7.17;1.67;;;;;;;;;;5050415;28;20218;-90
2022/10/19 14:42:05;;;;;;;6.03;1.40;;;;;;;;;;5034081;28;20192;-89
2022/10/19 14:44:31;;;;;;;5.17;1.87;;;;;;;;;;5036478;28;20177;-89
2022/10/19 14:46:59;;;;;;;3.67;1.60;;;;;;;;;;5033627;28;20219;-90
2022/10/19 14:49:25;;;;;;;6.73;1.70;;;;;;;;;;5036544;28;20179;-82
2022/10/19 14:51:54;;;;;;;6.73;1.63;;;;;;;;;;5048096;28;20179;-82